Orbital elements of COSMOS 1275 DEB
| Launched | 3 June 1981 |
| Flight ended | – |
| Launch site | Plesetsk Missile and Space Complex, Russia |
| Owner | Commonwealth of Independent States (former USSR) |
| NORAD ID | 17639 |
| Date fetched |
Epoch osculation |
Inc. [°] |
Ecc. | RA asc node [hr] |
Arg Peri. [°] |
Mean anom [°] |
Mean motion [rev/day] |
Abs. mag |
| Date fetched |
Epoch osculation |
Inc. [°] |
Ecc. | RA asc node [hr] |
Arg Peri. [°] |
Mean anom [°] |
Mean motion [rev/day] |
Abs. mag |
| 2026 May 05 17:57 | 2026 May 05 12:17:07 | 82.9971 | 0.01519 | 9.8190 | 288.2343 | 226.0502 | 13.63094 | – |
| 2026 May 04 17:57 | 2026 Apr 28 01:43:59 | 82.9974 | 0.01521 | 10.1764 | 308.8192 | 226.0502 | 13.63094 | – |
| 2026 May 03 17:57 | 2026 Apr 28 01:43:59 | 82.9974 | 0.01521 | 10.1764 | 308.8192 | 226.0502 | 13.63094 | – |
| 2026 May 02 17:57 | 2026 Apr 28 01:43:59 | 82.9974 | 0.01521 | 10.1764 | 308.8192 | 226.0502 | 13.63094 | – |
| 2026 May 01 17:56 | 2026 Apr 28 01:43:59 | 82.9974 | 0.01521 | 10.1764 | 308.8192 | 226.0502 | 13.63094 | – |
| 2026 Apr 30 17:56 | 2026 Apr 28 01:43:59 | 82.9974 | 0.01521 | 10.1764 | 308.8192 | 226.0502 | 13.63094 | – |
| 2026 Apr 29 17:57 | 2026 Apr 24 09:48:18 | 82.9981 | 0.01522 | 10.3523 | 318.9449 | 226.0502 | 13.63094 | – |
| 2026 Apr 28 17:56 | 2026 Apr 24 09:48:18 | 82.9981 | 0.01522 | 10.3523 | 318.9449 | 226.0502 | 13.63094 | – |
| 2026 Apr 27 17:58 | 2026 Apr 24 09:48:18 | 82.9981 | 0.01522 | 10.3523 | 318.9449 | 226.0502 | 13.63094 | – |
| 2026 Apr 26 17:58 | 2026 Apr 24 09:48:18 | 82.9981 | 0.01522 | 10.3523 | 318.9449 | 226.0502 | 13.63094 | – |
| 2026 Apr 25 17:58 | 2026 Apr 24 09:48:18 | 82.9981 | 0.01522 | 10.3523 | 318.9449 | 226.0502 | 13.63094 | – |
| 2026 Apr 24 17:59 | 2026 Apr 24 09:48:18 | 82.9981 | 0.01522 | 10.3523 | 318.9449 | 226.0502 | 13.63094 | – |
| 2026 Apr 23 17:57 | 2026 Apr 19 09:48:54 | 82.9988 | 0.01524 | 10.5924 | 332.7648 | 226.0502 | 13.63094 | – |
| 2026 Apr 22 17:57 | 2026 Apr 19 09:48:54 | 82.9988 | 0.01524 | 10.5924 | 332.7648 | 226.0502 | 13.63094 | – |
| 2026 Apr 21 17:57 | 2026 Apr 19 09:48:54 | 82.9988 | 0.01524 | 10.5924 | 332.7648 | 226.0502 | 13.63094 | – |
| 2026 Apr 20 17:57 | 2026 Apr 19 09:48:54 | 82.9988 | 0.01524 | 10.5924 | 332.7648 | 226.0502 | 13.63094 | – |
| 2026 Apr 19 17:58 | 2026 Apr 19 09:48:54 | 82.9988 | 0.01524 | 10.5924 | 332.7648 | 226.0502 | 13.63094 | – |
| 2026 Apr 18 17:56 | 2026 Apr 13 04:06:20 | 82.9993 | 0.01528 | 10.8920 | 350.0001 | 226.0502 | 13.63094 | – |
| 2026 Apr 16 17:57 | 2026 Apr 13 04:06:20 | 82.9993 | 0.01528 | 10.8920 | 350.0001 | 226.0502 | 13.63094 | – |
| 2026 Apr 14 17:57 | 2026 Apr 13 04:06:20 | 82.9993 | 0.01528 | 10.8920 | 350.0001 | 226.0502 | 13.63094 | – |
| 2026 Apr 13 17:57 | 2026 Apr 13 04:06:20 | 82.9993 | 0.01528 | 10.8920 | 350.0001 | 226.0502 | 13.63094 | – |
| 2026 Apr 12 17:57 | 2026 Apr 08 11:16:23 | 83.0002 | 0.01532 | 11.1177 | 2.9463 | 226.0502 | 13.63094 | – |
| 2026 Apr 11 17:57 | 2026 Apr 08 11:16:23 | 83.0002 | 0.01532 | 11.1177 | 2.9463 | 226.0502 | 13.63094 | – |
| 2026 Apr 10 17:58 | 2026 Apr 08 11:16:23 | 83.0002 | 0.01532 | 11.1177 | 2.9463 | 226.0502 | 13.63094 | – |
| 2026 Apr 09 18:01 | 2026 Apr 08 11:16:23 | 83.0002 | 0.01532 | 11.1177 | 2.9463 | 226.0502 | 13.63094 | – |
| 2026 Apr 08 17:57 | 2026 Apr 08 11:16:23 | 83.0002 | 0.01532 | 11.1177 | 2.9463 | 226.0502 | 13.63094 | – |